Time;durP1;ratioP1;P1;durP2;ratioP2;P2;SDS_P1;SDS_P2;PMS_P1;PMS_P2;Temp;Humidity;BMP_temperature;BMP_pressure;BME280_temperature;BME280_humidity;BME280_pressure;Samples;Min_cycle;Max_cycle;Signal;HPM_P1;HPM_P2
2022/12/03 00:00:01;;;;;;;53.25;8.82;;;;;;;21.23;59.57;100058.25;7312061;19;130052;-76
2022/12/03 00:02:26;;;;;;;34.42;7.65;;;;;;;21.22;59.78;100054.78;7315523;19;129561;-72
2022/12/03 00:04:51;;;;;;;34.47;8.18;;;;;;;21.20;60.20;100054.09;7311146;19;132908;-71
2022/12/03 00:07:17;;;;;;;31.70;8.13;;;;;;;21.08;59.59;100039.41;7314718;19;129484;-76
2022/12/03 00:09:42;;;;;;;68.22;10.15;;;;;;;21.16;60.11;100052.69;7313516;19;129048;-76
2022/12/03 00:12:07;;;;;;;29.90;7.03;;;;;;;21.16;60.09;100057.91;7312307;19;129674;-72
2022/12/03 00:14:33;;;;;;;20.42;6.90;;;;;;;21.15;59.97;100051.03;7313078;19;131959;-75
2022/12/03 00:16:58;;;;;;;32.72;7.85;;;;;;;21.19;60.36;100047.19;7313587;19;133419;-75
2022/12/03 00:19:23;;;;;;;49.13;8.43;;;;;;;21.24;59.77;100045.03;7313390;19;129164;-70
2022/12/03 00:21:48;;;;;;;33.30;7.93;;;;;;;21.37;59.86;100043.06;7313721;19;129389;-75
2022/12/03 00:24:14;;;;;;;44.60;9.07;;;;;;;21.46;59.25;100039.69;7312937;19;129663;-74
2022/12/03 00:26:39;;;;;;;22.73;6.43;;;;;;;21.51;59.05;100034.91;7312318;19;132979;-76
2022/12/03 00:29:04;;;;;;;53.07;8.40;;;;;;;21.66;58.37;100041.47;7314253;19;130241;-72
2022/12/03 00:31:30;;;;;;;32.13;7.43;;;;;;;21.68;58.23;100036.91;7311929;19;129472;-72
2022/12/03 00:33:55;;;;;;;35.75;8.07;;;;;;;21.72;58.19;100035.72;7314501;19;129873;-71
2022/12/03 00:36:20;;;;;;;23.10;7.20;;;;;;;21.75;58.17;100040.69;7311900;19;132242;-70
2022/12/03 00:38:46;;;;;;;42.33;8.65;;;;;;;21.68;58.11;100036.91;7315344;19;129493;-71
2022/12/03 00:41:11;;;;;;;25.73;7.03;;;;;;;21.67;58.70;100032.66;7311782;19;129224;-70
2022/12/03 00:43:37;;;;;;;22.95;7.20;;;;;;;21.64;58.24;100027.69;7312549;19;130004;-70
2022/12/03 00:46:02;;;;;;;60.67;9.80;;;;;;;21.62;58.72;100039.22;7312997;19;129714;-75
2022/12/03 00:48:28;;;;;;;27.50;7.15;;;;;;;21.56;58.95;100037.97;7313195;19;129354;-70
2022/12/03 00:50:53;;;;;;;34.00;8.17;;;;;;;21.52;59.00;100033.94;7312254;19;129189;-72
2022/12/03 00:53:18;;;;;;;32.38;8.00;;;;;;;21.50;58.84;100035.03;7312983;19;130361;-71
2022/12/03 00:55:44;;;;;;;45.73;7.63;;;;;;;21.44;59.48;100031.16;7311965;19;131956;-76
2022/12/03 00:58:10;;;;;;;16.08;6.75;;;;;;;21.29;59.17;100014.09;7312552;19;129411;-74
2022/12/03 01:00:35;;;;;;;28.08;6.60;;;;;;;21.39;59.36;100043.78;7309502;19;129631;-72
2022/12/03 01:03:02;;;;;;;21.77;6.70;;;;;;;21.33;59.43;100033.84;7313521;19;130163;-76
2022/12/03 01:05:27;;;;;;;52.58;8.65;;;;;;;21.32;59.80;100032.16;7311510;19;129827;-75
2022/12/03 01:07:53;;;;;;;26.35;7.18;;;;;;;21.25;59.83;100028.41;7313582;19;129661;-75
2022/12/03 01:10:18;;;;;;;19.75;7.20;;;;;;;21.28;60.15;100035.16;7313208;19;130201;-75
2022/12/03 01:12:43;;;;;;;32.90;7.53;;;;;;;21.26;59.37;100035.28;7325373;19;132154;-69
2022/12/03 01:15:10;;;;;;;41.30;7.57;;;;;;;21.25;59.98;100036.25;7313113;19;129707;-73
2022/12/03 01:17:36;;;;;;;33.90;8.27;;;;;;;21.10;59.90;100005.31;7310624;19;129321;-71
2022/12/03 01:20:03;;;;;;;36.28;7.28;;;;;;;21.24;60.12;100034.56;7311147;19;129612;-70
2022/12/03 01:22:29;;;;;;;55.20;8.80;;;;;;;21.27;60.07;100028.28;7308161;19;132871;-70
2022/12/03 01:24:54;;;;;;;30.90;8.05;;;;;;;21.28;60.00;100030.78;7310281;19;129372;-76
2022/12/03 01:27:19;;;;;;;29.13;7.03;;;;;;;21.30;59.21;100020.19;7311291;19;129491;-74
2022/12/03 01:29:45;;;;;;;32.00;7.93;;;;;;;21.47;58.96;100028.25;7311007;19;129827;-75
2022/12/03 01:32:16;;;;;;;39.40;7.55;;;;;;;21.53;58.78;100019.91;7308411;19;131825;-71
2022/12/03 01:34:50;;;;;;;38.00;8.38;;;;;;;21.53;58.64;100013.84;7312004;19;132434;-74
2022/12/03 01:37:17;;;;;;;33.33;7.45;;;;;;;21.68;58.47;100018.59;7312171;19;129067;-70
2022/12/03 01:39:43;;;;;;;32.78;6.95;;;;;;;21.82;58.31;100031.41;7310086;19;129347;-74
2022/12/03 01:42:15;;;;;;;43.08;8.05;;;;;;;21.80;57.96;100027.22;7309261;19;129282;-74
2022/12/03 01:44:40;;;;;;;54.53;8.50;;;;;;;21.79;58.58;100031.66;7310123;19;129538;-75
2022/12/03 01:47:11;;;;;;;52.95;8.18;;;;;;;21.78;58.04;100029.97;7312667;19;128905;-76
2022/12/03 01:49:42;;;;;;;41.30;8.63;;;;;;;21.74;58.81;100028.56;7309796;19;129729;-77
2022/12/03 01:52:19;;;;;;;46.03;8.23;;;;;;;21.71;58.44;100028.84;7307778;19;129563;-73
2022/12/03 01:54:54;;;;;;;36.30;7.32;;;;;;;21.66;58.44;100031.00;7310717;19;129746;-76
2022/12/03 01:57:26;;;;;;;60.50;9.38;;;;;;;21.61;59.13;100025.34;7310770;19;128702;-76
2022/12/03 01:59:54;;;;;;;46.25;8.48;;;;;;;21.59;59.09;100024.63;7312061;19;130523;-71
2022/12/03 02:02:25;;;;;;;43.65;8.40;;;;;;;21.50;58.91;100017.53;7311664;19;130333;-72
2022/12/03 02:04:52;;;;;;;20.45;6.65;;;;;;;21.46;59.31;100024.00;7309120;19;132321;-74
2022/12/03 02:07:32;;;;;;;29.97;6.70;;;;;;;21.46;59.49;100028.41;7323086;19;130167;-75
2022/12/03 02:09:59;;;;;;;29.95;6.50;;;;;;;21.28;59.64;100004.63;7310217;19;129054;-77
2022/12/03 02:13:04;;;;;;;45.97;8.13;;;;;;;21.37;59.44;100014.28;7310280;19;129828;-71
2022/12/03 02:15:29;;;;;;;41.25;7.80;;;;;;;21.35;59.92;100016.22;7310027;19;132022;-75
2022/12/03 02:17:55;;;;;;;38.85;7.50;;;;;;;21.21;59.38;99997.38;7315531;19;129497;-76
2022/12/03 02:20:21;;;;;;;30.40;7.07;;;;;;;21.30;59.61;100018.41;7316105;19;129044;-77
2022/12/03 02:22:58;;;;;;;25.38;6.80;;;;;;;21.28;59.90;100015.06;7317941;19;129941;-75
2022/12/03 02:25:30;;;;;;;54.63;8.32;;;;;;;21.24;59.95;100011.03;7313982;19;131994;-76
2022/12/03 02:27:57;;;;;;;43.65;7.68;;;;;;;21.29;59.58;100006.25;7315592;19;129271;-73
2022/12/03 02:30:24;;;;;;;33.00;6.70;;;;;;;21.39;59.44;100020.22;7316537;19;129081;-76
2022/12/03 02:32:51;;;;;;;43.80;8.18;;;;;;;21.47;59.56;100017.00;7316205;19;132548;-75
2022/12/03 02:35:30;;;;;;;29.50;7.10;;;;;;;21.56;59.00;100017.03;7316847;19;133066;-75
2022/12/03 02:38:02;;;;;;;38.33;7.72;;;;;;;21.63;58.55;100010.34;7314447;19;128988;-71
2022/12/03 02:40:31;;;;;;;31.50;6.97;;;;;;;21.79;58.17;100010.72;7315310;19;131237;-74
2022/12/03 02:43:00;;;;;;;61.25;8.52;;;;;;;21.79;57.99;100015.97;7319305;19;130263;-74
2022/12/03 02:45:31;;;;;;;34.10;7.13;;;;;;;21.71;58.17;100002.66;7315432;19;129753;-75
2022/12/03 02:48:01;;;;;;;49.90;8.30;;;;;;;21.77;58.25;100012.63;7316241;19;129190;-71
2022/12/03 02:50:33;;;;;;;35.80;7.78;;;;;;;21.73;58.33;100019.03;7316695;19;130097;-75
2022/12/03 02:53:03;;;;;;;47.13;8.00;;;;;;;21.71;58.52;100014.91;7315877;19;132144;-77
2022/12/03 02:55:30;;;;;;;19.08;6.15;;;;;;;21.69;58.37;100016.81;7319106;19;130085;-71
2022/12/03 02:57:56;;;;;;;;;;;;;;;21.63;58.45;100012.97;7318018;19;129801;-72
2022/12/03 03:00:21;;;;;;;31.13;6.78;;;;;;;21.62;59.17;100015.69;7328592;19;129039;-73
2022/12/03 03:02:49;;;;;;;50.10;8.70;;;;;;;21.54;59.01;100011.09;7315241;19;133341;-74
2022/12/03 03:05:19;;;;;;;27.65;6.35;;;;;;;21.53;59.16;100022.53;7312948;19;129405;-72
2022/12/03 03:07:45;;;;;;;31.08;6.97;;;;;;;21.48;59.47;100016.88;7316938;19;128941;-75
2022/12/03 03:10:13;;;;;;;33.40;7.00;;;;;;;21.46;59.14;100024.00;7314628;19;129117;-75
2022/12/03 03:12:39;;;;;;;50.53;8.27;;;;;;;21.42;59.25;100022.59;7314423;19;132301;-71
2022/12/03 03:15:06;;;;;;;36.87;7.27;;;;;;;21.37;59.40;100019.53;7316634;19;128861;-70
2022/12/03 03:17:31;;;;;;;16.48;6.30;;;;;;;21.36;60.08;100017.88;7315261;19;129572;-71
2022/12/03 03:19:57;;;;;;;34.85;6.82;;;;;;;21.33;59.40;100018.13;7316677;19;128992;-77
2022/12/03 03:22:31;;;;;;;23.53;6.63;;;;;;;21.37;59.80;100019.53;7316066;19;129436;-76
2022/12/03 03:24:57;;;;;;;36.08;7.00;;;;;;;21.38;59.21;100015.13;7315365;19;129823;-75
2022/12/03 03:27:23;;;;;;;29.95;6.85;;;;;;;21.32;59.36;99998.16;7314960;19;129503;-74
2022/12/03 03:29:48;;;;;;;31.17;7.10;;;;;;;21.49;59.23;100018.50;7312918;19;129132;-76
2022/12/03 03:32:13;;;;;;;44.33;7.28;;;;;;;21.61;59.24;100017.47;7316569;19;128999;-70
2022/12/03 03:34:39;;;;;;;31.17;6.50;;;;;;;21.66;58.30;100012.69;7315716;19;129921;-71
2022/12/03 03:37:04;;;;;;;34.50;7.00;;;;;;;21.75;58.74;100008.47;7314462;19;129049;-73
2022/12/03 03:39:30;;;;;;;31.40;6.55;;;;;;;21.92;58.34;100006.09;7315767;19;128987;-77
2022/12/03 03:41:55;;;;;;;45.83;7.47;;;;;;;22.05;57.43;100005.84;7312246;19;132124;-76
2022/12/03 03:44:20;;;;;;;18.85;5.80;;;;;;;22.21;57.19;100002.75;7315290;19;130350;-71
2022/12/03 03:46:47;;;;;;;29.77;6.40;;;;;;;22.18;56.66;99989.91;7316567;19;129294;-72
2022/12/03 03:49:13;;;;;;;;;;;;;;;22.35;56.58;100002.34;7317257;19;129498;-75
2022/12/03 03:51:38;;;;;;;37.67;7.05;;;;;;;22.44;56.27;100012.03;7311694;19;132347;-76
2022/12/03 03:54:04;;;;;;;26.88;6.30;;;;;;;22.42;56.54;99995.63;7320352;19;132538;-69
2022/12/03 03:56:32;;;;;;;22.95;6.07;;;;;;;22.39;56.20;99988.88;7313576;19;129195;-70
2022/12/03 03:58:58;;;;;;;46.75;8.00;;;;;;;22.52;56.44;100006.94;7312742;19;129029;-76
2022/12/03 04:01:23;;;;;;;36.80;6.25;;;;;;;22.49;56.32;99999.38;7313239;19;130057;-70
2022/12/03 04:03:49;;;;;;;46.73;7.73;;;;;;;22.47;56.38;100009.16;7312952;19;131795;-70
2022/12/03 04:06:14;;;;;;;36.10;7.55;;;;;;;22.42;56.24;100006.09;7315604;19;129629;-75
2022/12/03 04:08:39;;;;;;;38.50;7.65;;;;;;;22.37;56.48;100005.66;7312698;19;129431;-70
2022/12/03 04:13:49;;;;;;;36.38;7.07;;;;;;;22.17;56.97;99998.72;7315610;19;129428;-76
2022/12/03 04:16:15;;;;;;;32.60;6.65;;;;;;;22.12;57.15;100006.16;7313126;19;129556;-74
2022/12/03 04:18:43;;;;;;;28.20;6.23;;;;;;;22.08;57.66;99999.53;7315389;19;129181;-70
2022/12/03 04:24:05;;;;;;;37.05;7.00;;;;;;;21.87;57.84;99995.19;7312881;19;129381;-74
2022/12/03 04:29:13;;;;;;;56.33;8.20;;;;;;;21.78;58.11;99997.78;7315480;19;129217;-74
2022/12/03 04:37:07;;;;;;;31.10;6.63;;;;;;;21.48;58.64;99977.63;7315670;19;129219;-75
2022/12/03 04:39:33;;;;;;;19.85;5.95;;;;;;;21.56;58.64;99998.72;7311182;19;130420;-72
2022/12/03 04:41:58;;;;;;;41.88;7.03;;;;;;;21.52;58.78;99996.47;7310969;19;130198;-71
2022/12/03 04:44:34;;;;;;;48.10;8.07;;;;;;;21.47;59.31;100002.09;7313529;19;129071;-70
2022/12/03 04:47:07;;;;;;;20.13;5.57;;;;;;;21.43;59.61;100002.50;7317279;19;129494;-72
2022/12/03 04:49:34;;;;;;;42.72;8.35;;;;;;;21.38;59.14;100002.06;7330243;19;128914;-71
2022/12/03 04:52:00;;;;;;;34.28;6.75;;;;;;;21.31;59.29;99996.50;7311036;19;129520;-76
2022/12/03 04:54:26;;;;;;;33.95;7.00;;;;;;;21.31;59.85;99999.13;7314352;19;129639;-75
2022/12/03 04:56:51;;;;;;;39.23;7.13;;;;;;;21.18;59.93;99980.19;7311299;19;129108;-74
2022/12/03 04:59:17;;;;;;;25.92;6.25;;;;;;;21.27;59.98;99995.09;7313082;19;129044;-70
2022/12/03 05:01:43;;;;;;;33.00;7.07;;;;;;;21.26;59.75;99996.06;7310806;19;129214;-77
2022/12/03 05:04:24;;;;;;;35.53;6.38;;;;;;;21.13;59.47;99974.50;7307635;19;130078;-76
2022/12/03 05:06:50;;;;;;;37.25;6.93;;;;;;;21.24;59.87;99991.91;7312785;19;131223;-71
2022/12/03 05:09:15;;;;;;;25.80;5.88;;;;;;;21.22;60.29;99993.84;7312820;19;129808;-77
2022/12/03 05:11:41;;;;;;;24.17;5.78;;;;;;;21.25;59.87;99993.56;7310696;19;129517;-75
2022/12/03 05:14:08;;;;;;;50.67;7.23;;;;;;;21.22;60.30;99992.03;7313123;19;130044;-75
2022/12/03 05:16:33;;;;;;;24.80;5.70;;;;;;;21.19;60.40;99979.22;7313337;19;128996;-71
2022/12/03 05:19:00;;;;;;;29.00;6.37;;;;;;;21.17;60.12;99981.13;7313774;19;129169;-71
2022/12/03 05:21:25;;;;;;;26.73;5.80;;;;;;;21.18;60.20;99971.50;7308756;19;132038;-77
2022/12/03 05:23:50;;;;;;;58.73;7.87;;;;;;;21.09;59.83;99967.88;7311811;19;130148;-72
2022/12/03 05:26:17;;;;;;;45.80;7.30;;;;;;;21.25;59.88;99989.19;7312198;19;129450;-72
2022/12/03 05:28:42;;;;;;;24.75;5.90;;;;;;;21.24;60.00;99979.66;7311609;19;128869;-77
2022/12/03 05:31:07;;;;;;;40.78;7.07;;;;;;;21.29;59.50;99974.88;7307848;19;130504;-73
2022/12/03 05:33:33;;;;;;;58.05;8.18;;;;;;;21.33;60.01;99971.06;7310441;19;131999;-70
2022/12/03 05:35:58;;;;;;;21.80;5.55;;;;;;;21.37;59.20;99967.22;7310661;19;128969;-74
2022/12/03 05:38:24;;;;;;;34.47;6.47;;;;;;;21.41;59.38;99973.84;7309856;19;128828;-75
2022/12/03 05:40:49;;;;;;;32.78;6.88;;;;;;;21.46;59.55;99971.69;7310041;19;131902;-73
2022/12/03 05:43:14;;;;;;;41.97;6.47;;;;;;;21.51;59.18;99969.50;7331971;19;129615;-70
2022/12/03 05:45:42;;;;;;;35.15;6.75;;;;;;;21.53;59.45;99967.59;7312178;19;128983;-70
2022/12/03 05:48:09;;;;;;;22.30;5.82;;;;;;;21.61;58.61;99964.31;7310799;19;129530;-70
2022/12/03 05:50:36;;;;;;;37.85;6.95;;;;;;;21.65;59.00;99961.31;7308412;19;132482;-74
2022/12/03 05:53:02;;;;;;;49.30;7.82;;;;;;;21.70;58.11;99968.78;7317711;19;129270;-74
2022/12/03 05:55:28;;;;;;;31.50;6.53;;;;;;;21.64;58.73;99943.97;7317884;19;128903;-75
2022/12/03 05:57:53;;;;;;;26.85;5.68;;;;;;;21.76;57.97;99958.66;7318068;19;130668;-70
2022/12/03 06:00:28;;;;;;;37.25;6.68;;;;;;;21.76;58.58;99963.88;7317530;19;129503;-72
2022/12/03 06:02:53;;;;;;;51.00;7.28;;;;;;;21.77;58.18;99962.91;7319535;19;132941;-74
2022/12/03 06:05:19;;;;;;;30.83;6.03;;;;;;;21.87;58.10;99971.63;7315983;19;131025;-74
2022/12/03 06:07:46;;;;;;;32.57;6.83;;;;;;;21.87;58.23;99966.38;7315321;19;129001;-73
2022/12/03 06:10:14;;;;;;;24.92;5.90;;;;;;;21.87;58.35;99966.38;7314408;19;132830;-73
2022/12/03 06:12:40;;;;;;;45.03;6.88;;;;;;;21.85;58.36;99967.47;7318135;19;129557;-74
2022/12/03 06:15:06;;;;;;;33.10;6.10;;;;;;;21.82;57.92;99965.97;7318399;19;129655;-74
2022/12/03 06:17:31;;;;;;;30.67;5.88;;;;;;;21.82;58.49;99968.56;7317571;19;129415;-73
2022/12/03 06:19:57;;;;;;;38.92;6.53;;;;;;;21.82;58.03;99971.19;7316399;19;129536;-73
2022/12/03 06:22:22;;;;;;;70.50;9.25;;;;;;;21.83;57.62;99967.59;7314851;19;131894;-74
2022/12/03 06:24:49;;;;;;;30.43;6.33;;;;;;;21.81;58.17;99966.09;7315913;19;129140;-76
2022/12/03 06:27:14;;;;;;;11.85;5.03;;;;;;;21.69;58.39;99951.41;7317442;19;129012;-71
2022/12/03 06:29:39;;;;;;;30.77;6.32;;;;;;;21.78;58.17;99972.41;7317146;19;130709;-74
2022/12/03 06:32:05;;;;;;;54.77;7.27;;;;;;;21.79;58.09;99976.69;7314556;19;129738;-75
2022/12/03 06:34:30;;;;;;;16.50;4.85;;;;;;;21.77;58.05;99978.63;7319229;19;129291;-75
2022/12/03 06:36:56;;;;;;;54.42;7.18;;;;;;;21.78;58.61;99971.59;7342366;19;128729;-73
2022/12/03 06:39:21;;;;;;;34.92;6.25;;;;;;;21.78;58.12;99975.03;7315167;19;130484;-69
2022/12/03 06:41:47;;;;;;;45.47;7.03;;;;;;;21.70;58.28;99950.47;7315412;19;129656;-75
2022/12/03 06:44:13;;;;;;;30.90;6.55;;;;;;;21.76;58.28;99973.47;7313306;19;128950;-75
2022/12/03 06:46:38;;;;;;;34.38;6.32;;;;;;;21.65;58.81;99966.53;7315597;19;129310;-74
2022/12/03 06:49:03;;;;;;;38.75;6.25;;;;;;;21.68;58.70;99975.94;7312938;19;132091;-70
2022/12/03 06:51:29;;;;;;;28.38;5.47;;;;;;;21.69;58.20;99982.81;7315938;19;129585;-75
2022/12/03 06:53:54;;;;;;;28.53;6.27;;;;;;;21.66;58.22;99973.44;7317215;19;129432;-74
2022/12/03 06:56:19;;;;;;;26.77;5.90;;;;;;;21.60;58.67;99973.94;7315267;19;129779;-70
2022/12/03 06:58:45;;;;;;;36.40;6.50;;;;;;;21.55;58.87;99975.31;7316341;19;129274;-70
2022/12/03 07:01:10;;;;;;;26.52;6.05;;;;;;;21.57;58.86;99974.22;7314792;19;129724;-71
2022/12/03 07:03:35;;;;;;;24.02;5.43;;;;;;;21.55;58.86;99965.66;7315507;19;129598;-71
2022/12/03 07:06:01;;;;;;;51.03;7.47;;;;;;;21.54;59.29;99974.47;7314717;19;129572;-72
2022/12/03 07:08:26;;;;;;;30.48;5.55;;;;;;;21.51;59.01;99979.13;7316169;19;129218;-72
2022/12/03 07:10:52;;;;;;;25.73;5.53;;;;;;;21.50;59.06;99977.50;7316011;19;130024;-77
2022/12/03 07:13:17;;;;;;;22.15;5.53;;;;;;;21.47;58.86;99970.72;7315312;19;129136;-73
2022/12/03 07:15:43;;;;;;;38.78;6.57;;;;;;;21.51;59.21;99966.91;7315092;19;129001;-74
2022/12/03 07:18:08;;;;;;;34.95;5.90;;;;;;;21.50;58.82;99964.41;7314073;19;131664;-71
2022/12/03 07:20:33;;;;;;;28.27;5.53;;;;;;;21.51;58.64;99974.75;7314611;19;131592;-76
2022/12/03 07:22:59;;;;;;;36.25;6.72;;;;;;;21.49;59.25;99974.03;7312217;19;129521;-70
2022/12/03 07:25:24;;;;;;;35.03;6.40;;;;;;;21.44;58.59;99968.38;7314951;19;128938;-76
2022/12/03 07:27:49;;;;;;;56.25;8.23;;;;;;;21.45;58.69;99974.44;7312676;19;132781;-74
2022/12/03 07:30:15;;;;;;;42.17;6.93;;;;;;;21.43;56.45;99977.19;7322962;19;133253;-74
2022/12/03 07:32:40;;;;;;;39.23;7.43;;;;;;;21.37;55.68;99975.06;7316729;19;129075;-74
2022/12/03 07:35:06;;;;;;;55.30;8.27;;;;;;;21.36;56.47;99978.66;7314502;19;129580;-70
2022/12/03 07:37:35;;;;;;;24.63;6.57;;;;;;;21.38;57.10;99974.13;7311197;19;130157;-71
2022/12/03 07:40:01;;;;;;;32.80;6.88;;;;;;;21.38;57.72;99979.34;7314039;19;129520;-76
2022/12/03 07:42:26;;;;;;;34.58;6.95;;;;;;;21.40;57.99;99974.78;7313401;19;129753;-75
2022/12/03 07:44:52;;;;;;;29.05;6.28;;;;;;;21.39;57.83;99970.53;7312711;19;130309;-75
2022/12/03 07:47:17;;;;;;;38.77;7.47;;;;;;;21.41;58.01;99968.63;7314121;19;132060;-75
2022/12/03 07:49:43;;;;;;;27.73;6.40;;;;;;;21.26;58.06;99954.22;7315703;19;129617;-74
2022/12/03 07:52:08;;;;;;;28.85;6.18;;;;;;;21.37;58.26;99972.44;7312365;19;129131;-71
2022/12/03 07:54:34;;;;;;;54.90;7.65;;;;;;;21.41;58.05;99978.25;7313924;19;129234;-77
2022/12/03 07:56:59;;;;;;;47.23;7.40;;;;;;;21.40;58.57;99972.19;7314341;19;129521;-71
2022/12/03 07:59:25;;;;;;;25.87;5.73;;;;;;;21.41;58.37;99973.84;7313908;19;132243;-75
2022/12/03 08:01:50;;;;;;;40.72;7.43;;;;;;;21.43;58.47;99966.72;7312908;19;129054;-76
2022/12/03 08:04:17;;;;;;;40.15;6.63;;;;;;;21.45;58.83;99977.84;7315960;19;129852;-70
2022/12/03 08:06:44;;;;;;;39.28;6.32;;;;;;;21.47;58.52;99977.75;7314170;19;131938;-74
2022/12/03 08:09:10;;;;;;;55.47;7.95;;;;;;;21.46;59.02;99982.16;7313405;19;129108;-72
2022/12/03 08:11:35;;;;;;;29.37;6.07;;;;;;;21.46;58.62;99965.63;7313116;19;129680;-72
2022/12/03 08:14:01;;;;;;;27.23;6.07;;;;;;;21.47;59.08;99967.28;7311599;19;129131;-68
2022/12/03 08:16:29;;;;;;;34.63;6.72;;;;;;;21.46;58.75;99969.06;7310658;19;130052;-74
2022/12/03 08:18:56;;;;;;;40.35;6.43;;;;;;;21.44;58.95;99962.28;7309916;19;129755;-67
2022/12/03 08:21:21;;;;;;;38.08;6.35;;;;;;;21.46;59.23;99963.84;7310951;19;129271;-67
2022/12/03 08:23:47;;;;;;;40.55;6.63;;;;;;;21.44;59.05;99968.38;7314354;19;128891;-71
2022/12/03 08:26:19;;;;;;;43.33;7.30;;;;;;;21.41;58.83;99962.56;7321613;19;128821;-67
2022/12/03 08:28:44;;;;;;;23.52;5.85;;;;;;;21.40;59.18;99961.72;7314506;19;129600;-72
2022/12/03 08:31:17;;;;;;;34.53;6.18;;;;;;;21.40;59.07;99961.72;7310011;19;129215;-67
2022/12/03 08:33:42;;;;;;;62.22;7.88;;;;;;;21.37;59.61;99955.94;7311613;19;129111;-71
2022/12/03 08:36:26;;;;;;;54.97;8.15;;;;;;;21.35;59.25;99963.94;7311841;19;129568;-68
2022/12/03 08:38:58;;;;;;;30.92;6.10;;;;;;;21.28;59.35;99944.47;7313102;19;129549;-68
2022/12/03 08:44:31;;;;;;;12.02;5.22;;;;;;;21.32;59.37;99953.69;7307478;19;129291;-73
2022/12/03 08:47:08;;;;;;;53.15;8.07;;;;;;;21.32;58.96;99961.53;7311848;19;130450;-68
2022/12/03 08:49:38;;;;;;;21.35;5.55;;;;;;;21.26;59.40;99954.22;7311833;19;130183;-68
2022/12/03 08:52:16;;;;;;;30.98;6.32;;;;;;;21.25;59.70;99949.13;7310523;19;129020;-72
2022/12/03 08:54:45;;;;;;;49.45;7.32;;;;;;;21.36;59.21;99969.97;7310572;19;131063;-72
2022/12/03 08:57:30;;;;;;;34.58;5.95;;;;;;;21.33;59.10;99971.06;7311208;19;129520;-72
2022/12/03 09:00:12;;;;;;;42.55;6.85;;;;;;;21.28;59.99;99961.94;7308650;19;129594;-70
2022/12/03 09:02:44;;;;;;;50.30;7.30;;;;;;;21.31;59.75;99972.13;7311365;19;129436;-73
2022/12/03 09:05:15;;;;;;;32.50;6.45;;;;;;;21.14;59.50;99957.84;7310358;19;129156;-67
2022/12/03 09:07:41;;;;;;;40.10;6.82;;;;;;;21.26;59.25;99979.53;7309448;19;133309;-71
2022/12/03 09:10:07;;;;;;;62.58;9.77;;;;;;;21.23;57.50;99974.56;7310264;19;129256;-70
2022/12/03 09:12:32;;;;;;;69.43;9.97;;;;;;;21.18;57.88;99977.56;7309881;19;129559;-68
2022/12/03 09:14:57;;;;;;;33.37;6.70;;;;;;;21.09;58.55;99956.59;7312286;19;128967;-71
2022/12/03 09:17:23;;;;;;;33.83;7.85;;;;;;;21.13;58.48;99966.66;7336908;19;132074;-67
2022/12/03 09:19:48;;;;;;;49.90;8.10;;;;;;;21.13;59.53;99974.50;7312556;19;129307;-68
2022/12/03 09:22:16;;;;;;;28.50;6.55;;;;;;;21.13;58.96;99964.06;7313604;19;128900;-72
2022/12/03 09:24:41;;;;;;;32.70;7.18;;;;;;;21.11;59.58;99960.72;7309882;19;129021;-73
2022/12/03 09:27:07;;;;;;;35.33;6.93;;;;;;;21.09;58.90;99962.63;7314753;19;129487;-67
2022/12/03 09:29:32;;;;;;;60.37;8.57;;;;;;;21.09;58.87;99957.41;7317190;19;130182;-71
2022/12/03 09:31:57;;;;;;;34.05;7.20;;;;;;;21.11;59.00;99965.97;7317995;19;128757;-71
2022/12/03 09:34:22;;;;;;;90.27;11.53;;;;;;;21.13;59.43;99963.22;7314051;19;130116;-67
2022/12/03 09:36:48;;;;;;;29.17;6.57;;;;;;;21.17;59.26;99964.63;7314110;19;131981;-68
2022/12/03 09:39:13;;;;;;;56.38;8.07;;;;;;;21.15;59.06;99956.91;7315122;19;130616;-71
2022/12/03 09:41:39;;;;;;;34.17;7.30;;;;;;;21.11;59.44;99939.81;7313166;19;130196;-72
2022/12/03 09:44:04;;;;;;;35.05;7.47;;;;;;;21.28;59.25;99960.16;7313377;19;130441;-73
2022/12/03 09:46:30;;;;;;;72.80;10.85;;;;;;;21.39;58.91;99957.47;7308812;19;129566;-71
2022/12/03 09:48:55;;;;;;;52.22;8.05;;;;;;;21.45;58.00;99956.13;7313824;19;129854;-72
2022/12/03 09:51:22;;;;;;;27.52;6.65;;;;;;;21.55;58.18;99959.63;7317485;19;128929;-72
2022/12/03 09:53:48;;;;;;;44.42;7.82;;;;;;;21.58;58.23;99964.59;7318007;19;129001;-72
2022/12/03 09:56:19;;;;;;;49.72;8.40;;;;;;;21.65;58.07;99952.66;7318297;19;129504;-74
2022/12/03 09:58:44;;;;;;;32.95;7.10;;;;;;;21.70;57.79;99955.69;7316514;19;132262;-67
2022/12/03 10:01:13;;;;;;;36.60;8.13;;;;;;;21.71;58.02;99963.41;7317237;19;129061;-72
2022/12/03 10:03:43;;;;;;;33.38;7.35;;;;;;;21.72;57.66;99951.97;7316424;19;129462;-67
2022/12/03 10:06:15;;;;;;;59.70;9.38;;;;;;;21.77;57.92;99944.59;7314794;19;132665;-69
2022/12/03 10:08:41;;;;;;;44.30;7.90;;;;;;;21.82;57.38;99949.41;7319790;19;130109;-68
2022/12/03 10:11:06;;;;;;;35.33;7.68;;;;;;;21.76;57.73;99926.38;7317419;19;129499;-73
2022/12/03 10:13:33;;;;;;;33.23;7.43;;;;;;;21.93;57.36;99947.53;7318965;19;129745;-68
2022/12/03 10:16:00;;;;;;;49.90;8.02;;;;;;;21.93;57.75;99944.91;7318131;19;129562;-73
2022/12/03 10:18:28;;;;;;;43.55;8.00;;;;;;;21.94;57.19;99936.13;7318425;19;130176;-71
2022/12/03 10:20:54;;;;;;;28.50;6.35;;;;;;;21.96;56.93;99939.41;7317455;19;128883;-69
2022/12/03 10:23:25;;;;;;;33.00;7.10;;;;;;;21.95;57.56;99940.38;7318645;19;129068;-67
2022/12/03 10:25:56;;;;;;;26.02;6.65;;;;;;;21.95;57.18;99929.06;7317029;19;129248;-68
2022/12/03 10:28:37;;;;;;;41.22;7.93;;;;;;;21.92;57.18;99931.94;7318558;19;129472;-71
2022/12/03 10:31:09;;;;;;;43.72;8.00;;;;;;;21.90;57.19;99929.47;7316491;19;129096;-71
2022/12/03 10:33:38;;;;;;;37.70;7.15;;;;;;;21.85;57.57;99926.44;7319079;19;129729;-72
2022/12/03 10:36:19;;;;;;;42.97;8.88;;;;;;;21.83;58.12;99922.31;7317952;19;129506;-67
2022/12/03 10:38:45;;;;;;;33.75;6.70;;;;;;;21.78;57.97;99925.28;7323338;19;131362;-72
2022/12/03 10:41:24;;;;;;;26.77;7.15;;;;;;;21.76;58.31;99926.38;7317199;19;128841;-67
2022/12/03 10:43:50;;;;;;;31.35;7.28;;;;;;;21.71;57.99;99921.53;7318255;19;129071;-72
2022/12/03 10:46:18;;;;;;;55.38;8.43;;;;;;;21.69;58.23;99920.84;7314350;19;133079;-69
2022/12/03 10:48:43;;;;;;;35.67;7.47;;;;;;;21.63;58.28;99916.16;7318485;19;130143;-67
2022/12/03 10:51:19;;;;;;;31.48;7.47;;;;;;;21.62;57.99;99924.94;7316039;19;128965;-72
2022/12/03 10:53:46;;;;;;;14.32;5.97;;;;;;;21.56;58.28;99911.56;7317501;19;128915;-72
2022/12/03 10:56:18;;;;;;;42.10;7.63;;;;;;;21.57;58.57;99921.03;7316210;19;129320;-71
2022/12/03 10:58:43;;;;;;;35.00;7.97;;;;;;;21.51;58.59;99922.41;7317807;19;129808;-72
2022/12/03 11:01:15;;;;;;;27.85;6.50;;;;;;;21.51;58.95;99925.03;7314667;19;128706;-71
2022/12/03 11:03:41;;;;;;;37.00;7.88;;;;;;;21.47;59.05;99913.16;7316102;19;129076;-68
2022/12/03 11:06:14;;;;;;;59.90;9.50;;;;;;;21.46;58.87;99919.38;7315161;19;130126;-73
2022/12/03 11:08:42;;;;;;;37.47;7.80;;;;;;;21.41;58.69;99913.69;7317152;19;129806;-67
2022/12/03 11:11:37;;;;;;;20.08;6.70;;;;;;;21.40;59.09;99912.03;7317004;19;128915;-72
2022/12/03 11:14:03;;;;;;;50.55;8.40;;;;;;;21.38;59.13;99911.34;7314619;19;129135;-67
2022/12/03 11:16:38;;;;;;;;;;;;;;;21.35;59.43;99906.38;7316050;19;132437;-67
2022/12/03 11:19:12;;;;;;;32.42;7.28;;;;;;;21.36;59.06;99904.56;7314315;19;132641;-70
2022/12/03 11:22:05;;;;;;;26.02;6.32;;;;;;;21.32;59.46;99904.00;7313775;19;129171;-71
2022/12/03 11:24:40;;;;;;;28.95;7.22;;;;;;;21.31;58.91;99907.59;7316454;19;130372;-72
2022/12/03 11:27:15;;;;;;;19.83;6.30;;;;;;;21.30;59.04;99902.50;7313587;19;130815;-67
2022/12/03 11:29:49;;;;;;;40.53;8.15;;;;;;;21.29;59.44;99911.28;7315995;19;129462;-67
2022/12/03 11:32:42;;;;;;;33.60;7.53;;;;;;;21.26;59.48;99888.84;7325281;19;129525;-70